sensor_id;sensor_type;location;lat;lon;timestamp;temperature;humidity
19972;DHT22;10147;16.402;102.848;2024-01-10T00:01:34;22.90;99.90
19972;DHT22;10147;16.402;102.848;2024-01-10T00:04:05;23.00;99.90
19972;DHT22;10147;16.402;102.848;2024-01-10T00:06:35;23.00;99.90
19972;DHT22;10147;16.402;102.848;2024-01-10T00:09:05;23.00;99.90
19972;DHT22;10147;16.402;102.848;2024-01-10T00:11:35;23.00;99.90
19972;DHT22;10147;16.402;102.848;2024-01-10T00:14:05;23.10;99.90
19972;DHT22;10147;16.402;102.848;2024-01-10T00:16:35;23.10;99.90
19972;DHT22;10147;16.402;102.848;2024-01-10T00:19:05;23.00;99.90
19972;DHT22;10147;16.402;102.848;2024-01-10T00:21:35;23.20;99.90
19972;DHT22;10147;16.402;102.848;2024-01-10T00:24:05;23.20;99.90
19972;DHT22;10147;16.402;102.848;2024-01-10T00:26:35;23.30;99.90
19972;DHT22;10147;16.402;102.848;2024-01-10T00:29:05;23.40;99.90
19972;DHT22;10147;16.402;102.848;2024-01-10T00:31:35;23.50;99.90
19972;DHT22;10147;16.402;102.848;2024-01-10T00:34:05;23.60;99.90
19972;DHT22;10147;16.402;102.848;2024-01-10T00:36:35;23.60;99.90
19972;DHT22;10147;16.402;102.848;2024-01-10T00:39:05;23.40;99.90
19972;DHT22;10147;16.402;102.848;2024-01-10T00:41:36;23.30;99.90
19972;DHT22;10147;16.402;102.848;2024-01-10T00:44:07;23.50;99.90
19972;DHT22;10147;16.402;102.848;2024-01-10T00:46:37;23.80;99.90
19972;DHT22;10147;16.402;102.848;2024-01-10T00:49:07;23.90;99.90
19972;DHT22;10147;16.402;102.848;2024-01-10T00:51:37;23.90;99.90
19972;DHT22;10147;16.402;102.848;2024-01-10T00:54:07;24.10;99.90
19972;DHT22;10147;16.402;102.848;2024-01-10T00:56:37;24.00;99.90
19972;DHT22;10147;16.402;102.848;2024-01-10T00:59:07;24.10;99.90
19972;DHT22;10147;16.402;102.848;2024-01-10T01:01:37;24.20;99.90
19972;DHT22;10147;16.402;102.848;2024-01-10T01:04:07;24.30;99.90
19972;DHT22;10147;16.402;102.848;2024-01-10T01:06:37;24.30;99.90
19972;DHT22;10147;16.402;102.848;2024-01-10T01:09:07;24.30;99.90
19972;DHT22;10147;16.402;102.848;2024-01-10T01:11:37;24.40;99.90
19972;DHT22;10147;16.402;102.848;2024-01-10T01:14:07;24.50;99.90
19972;DHT22;10147;16.402;102.848;2024-01-10T01:16:37;24.30;99.90
19972;DHT22;10147;16.402;102.848;2024-01-10T01:19:07;24.40;99.90
19972;DHT22;10147;16.402;102.848;2024-01-10T01:21:38;24.50;99.90
19972;DHT22;10147;16.402;102.848;2024-01-10T01:24:08;24.60;99.90
19972;DHT22;10147;16.402;102.848;2024-01-10T01:26:37;24.60;99.90
19972;DHT22;10147;16.402;102.848;2024-01-10T01:29:08;24.70;99.90
19972;DHT22;10147;16.402;102.848;2024-01-10T01:31:38;24.90;99.90
19972;DHT22;10147;16.402;102.848;2024-01-10T01:34:08;25.00;99.90
19972;DHT22;10147;16.402;102.848;2024-01-10T01:36:38;24.90;99.90
19972;DHT22;10147;16.402;102.848;2024-01-10T01:39:08;25.00;99.90
19972;DHT22;10147;16.402;102.848;2024-01-10T01:41:40;25.20;99.90
19972;DHT22;10147;16.402;102.848;2024-01-10T01:44:10;25.40;99.90
19972;DHT22;10147;16.402;102.848;2024-01-10T01:46:40;25.30;99.90
19972;DHT22;10147;16.402;102.848;2024-01-10T01:49:11;25.30;99.90
19972;DHT22;10147;16.402;102.848;2024-01-10T01:51:42;25.50;99.90
19972;DHT22;10147;16.402;102.848;2024-01-10T01:54:12;25.50;99.90
19972;DHT22;10147;16.402;102.848;2024-01-10T01:56:42;25.50;99.90
19972;DHT22;10147;16.402;102.848;2024-01-10T01:59:14;25.50;99.90
19972;DHT22;10147;16.402;102.848;2024-01-10T02:01:44;25.60;99.90
19972;DHT22;10147;16.402;102.848;2024-01-10T02:04:14;25.90;99.90
19972;DHT22;10147;16.402;102.848;2024-01-10T02:06:44;25.90;99.90
19972;DHT22;10147;16.402;102.848;2024-01-10T02:09:15;25.90;99.90
19972;DHT22;10147;16.402;102.848;2024-01-10T02:11:44;25.80;99.90
19972;DHT22;10147;16.402;102.848;2024-01-10T02:14:15;25.90;99.90
19972;DHT22;10147;16.402;102.848;2024-01-10T02:16:46;25.90;99.90
19972;DHT22;10147;16.402;102.848;2024-01-10T02:19:23;26.00;99.90
19972;DHT22;10147;16.402;102.848;2024-01-10T02:21:56;26.10;99.90
19972;DHT22;10147;16.402;102.848;2024-01-10T02:24:26;26.30;99.90
19972;DHT22;10147;16.402;102.848;2024-01-10T02:26:56;26.40;99.90
19972;DHT22;10147;16.402;102.848;2024-01-10T02:29:26;26.40;99.90
19972;DHT22;10147;16.402;102.848;2024-01-10T02:31:56;26.50;99.90
19972;DHT22;10147;16.402;102.848;2024-01-10T02:34:26;26.50;99.90
19972;DHT22;10147;16.402;102.848;2024-01-10T02:36:56;26.60;99.90
19972;DHT22;10147;16.402;102.848;2024-01-10T02:39:26;26.60;99.90
19972;DHT22;10147;16.402;102.848;2024-01-10T02:41:57;26.80;99.90
19972;DHT22;10147;16.402;102.848;2024-01-10T02:44:28;26.70;99.90
19972;DHT22;10147;16.402;102.848;2024-01-10T02:46:58;27.00;99.90
19972;DHT22;10147;16.402;102.848;2024-01-10T02:49:28;27.10;99.90
19972;DHT22;10147;16.402;102.848;2024-01-10T02:51:58;27.30;99.90
19972;DHT22;10147;16.402;102.848;2024-01-10T02:54:28;27.20;99.90
19972;DHT22;10147;16.402;102.848;2024-01-10T02:56:58;27.30;99.90
19972;DHT22;10147;16.402;102.848;2024-01-10T02:59:28;27.30;99.90
19972;DHT22;10147;16.402;102.848;2024-01-10T03:01:58;27.40;99.90
19972;DHT22;10147;16.402;102.848;2024-01-10T03:04:28;27.50;99.90
19972;DHT22;10147;16.402;102.848;2024-01-10T03:06:58;27.60;99.90
19972;DHT22;10147;16.402;102.848;2024-01-10T03:09:28;27.70;99.90
19972;DHT22;10147;16.402;102.848;2024-01-10T03:11:58;27.60;99.90
19972;DHT22;10147;16.402;102.848;2024-01-10T03:14:28;27.90;99.90
19972;DHT22;10147;16.402;102.848;2024-01-10T03:20:14;28.00;99.90
19972;DHT22;10147;16.402;102.848;2024-01-10T03:22:45;28.30;99.90
19972;DHT22;10147;16.402;102.848;2024-01-10T03:25:15;28.20;99.90
19972;DHT22;10147;16.402;102.848;2024-01-10T03:27:45;28.30;99.90
19972;DHT22;10147;16.402;102.848;2024-01-10T03:30:15;28.40;99.90
19972;DHT22;10147;16.402;102.848;2024-01-10T03:32:48;28.40;99.90
19972;DHT22;10147;16.402;102.848;2024-01-10T03:35:18;28.60;99.90
19972;DHT22;10147;16.402;102.848;2024-01-10T03:37:48;28.70;99.90
19972;DHT22;10147;16.402;102.848;2024-01-10T03:40:18;28.90;99.90
19972;DHT22;10147;16.402;102.848;2024-01-10T03:42:50;29.00;99.90
19972;DHT22;10147;16.402;102.848;2024-01-10T03:45:21;29.30;99.90
19972;DHT22;10147;16.402;102.848;2024-01-10T03:47:52;29.30;99.90
19972;DHT22;10147;16.402;102.848;2024-01-10T03:50:22;29.30;99.90
19972;DHT22;10147;16.402;102.848;2024-01-10T03:52:53;29.30;99.90
19972;DHT22;10147;16.402;102.848;2024-01-10T03:55:23;29.20;99.90
19972;DHT22;10147;16.402;102.848;2024-01-10T03:57:53;29.40;99.90
19972;DHT22;10147;16.402;102.848;2024-01-10T04:00:23;29.50;99.90
19972;DHT22;10147;16.402;102.848;2024-01-10T04:02:55;29.60;99.90
19972;DHT22;10147;16.402;102.848;2024-01-10T04:05:25;29.50;99.90
19972;DHT22;10147;16.402;102.848;2024-01-10T04:07:55;29.50;99.90
19972;DHT22;10147;16.402;102.848;2024-01-10T04:10:26;29.70;99.90
19972;DHT22;10147;16.402;102.848;2024-01-10T04:12:56;29.60;99.90
19972;DHT22;10147;16.402;102.848;2024-01-10T04:15:26;29.60;99.90
19972;DHT22;10147;16.402;102.848;2024-01-10T04:17:56;29.80;99.90
19972;DHT22;10147;16.402;102.848;2024-01-10T04:20:27;29.90;99.90
19972;DHT22;10147;16.402;102.848;2024-01-10T04:22:57;30.00;99.90
19972;DHT22;10147;16.402;102.848;2024-01-10T04:25:27;30.10;99.90
19972;DHT22;10147;16.402;102.848;2024-01-10T04:27:58;30.30;99.90
19972;DHT22;10147;16.402;102.848;2024-01-10T04:30:27;30.20;99.90
19972;DHT22;10147;16.402;102.848;2024-01-10T04:32:58;30.30;99.90
19972;DHT22;10147;16.402;102.848;2024-01-10T04:35:27;30.30;99.90
19972;DHT22;10147;16.402;102.848;2024-01-10T04:37:58;30.30;99.90
19972;DHT22;10147;16.402;102.848;2024-01-10T04:40:31;30.40;99.90
19972;DHT22;10147;16.402;102.848;2024-01-10T04:43:03;30.20;99.90
19972;DHT22;10147;16.402;102.848;2024-01-10T04:45:35;30.30;99.90
19972;DHT22;10147;16.402;102.848;2024-01-10T04:48:05;30.30;99.90
19972;DHT22;10147;16.402;102.848;2024-01-10T04:50:36;30.50;99.90
19972;DHT22;10147;16.402;102.848;2024-01-10T04:53:06;30.50;99.90
19972;DHT22;10147;16.402;102.848;2024-01-10T04:55:36;30.70;99.90
19972;DHT22;10147;16.402;102.848;2024-01-10T04:58:06;30.90;99.90
19972;DHT22;10147;16.402;102.848;2024-01-10T05:00:37;30.80;99.90
19972;DHT22;10147;16.402;102.848;2024-01-10T05:03:10;30.80;99.90
19972;DHT22;10147;16.402;102.848;2024-01-10T05:05:40;30.90;99.90
19972;DHT22;10147;16.402;102.848;2024-01-10T05:08:10;31.10;99.90
19972;DHT22;10147;16.402;102.848;2024-01-10T05:10:41;31.20;99.90
19972;DHT22;10147;16.402;102.848;2024-01-10T05:13:10;31.40;99.90
19972;DHT22;10147;16.402;102.848;2024-01-10T05:15:41;31.30;99.90
19972;DHT22;10147;16.402;102.848;2024-01-10T05:18:10;31.40;99.90
19972;DHT22;10147;16.402;102.848;2024-01-10T05:20:41;31.50;99.90
19972;DHT22;10147;16.402;102.848;2024-01-10T05:23:11;31.50;99.90
19972;DHT22;10147;16.402;102.848;2024-01-10T05:25:41;31.30;99.90
19972;DHT22;10147;16.402;102.848;2024-01-10T05:28:11;31.50;99.90
19972;DHT22;10147;16.402;102.848;2024-01-10T05:30:42;31.70;99.90
19972;DHT22;10147;16.402;102.848;2024-01-10T05:33:18;32.00;99.90
19972;DHT22;10147;16.402;102.848;2024-01-10T05:35:49;32.10;99.90
19972;DHT22;10147;16.402;102.848;2024-01-10T05:38:19;31.90;99.90
19972;DHT22;10147;16.402;102.848;2024-01-10T05:40:50;31.90;99.90
19972;DHT22;10147;16.402;102.848;2024-01-10T05:43:23;31.90;99.90
19972;DHT22;10147;16.402;102.848;2024-01-10T05:45:54;31.70;99.90
19972;DHT22;10147;16.402;102.848;2024-01-10T05:48:24;31.90;99.90
19972;DHT22;10147;16.402;102.848;2024-01-10T05:50:54;32.10;99.90
19972;DHT22;10147;16.402;102.848;2024-01-10T05:53:24;32.20;99.90
19972;DHT22;10147;16.402;102.848;2024-01-10T05:55:55;32.20;99.90
19972;DHT22;10147;16.402;102.848;2024-01-10T05:58:25;32.50;99.90
19972;DHT22;10147;16.402;102.848;2024-01-10T06:00:55;32.50;99.90
19972;DHT22;10147;16.402;102.848;2024-01-10T06:03:25;32.60;99.90
19972;DHT22;10147;16.402;102.848;2024-01-10T06:05:56;32.60;99.90
19972;DHT22;10147;16.402;102.848;2024-01-10T06:08:26;32.60;99.90
19972;DHT22;10147;16.402;102.848;2024-01-10T06:10:58;32.50;99.90
19972;DHT22;10147;16.402;102.848;2024-01-10T06:13:28;32.50;99.90
19972;DHT22;10147;16.402;102.848;2024-01-10T06:16:13;32.50;99.90
19972;DHT22;10147;16.402;102.848;2024-01-10T06:18:43;32.70;99.90
19972;DHT22;10147;16.402;102.848;2024-01-10T06:21:13;32.70;99.90
19972;DHT22;10147;16.402;102.848;2024-01-10T06:23:43;32.80;99.90
19972;DHT22;10147;16.402;102.848;2024-01-10T06:26:13;32.70;99.90
19972;DHT22;10147;16.402;102.848;2024-01-10T06:28:43;32.90;99.90
19972;DHT22;10147;16.402;102.848;2024-01-10T06:31:13;33.00;99.90
19972;DHT22;10147;16.402;102.848;2024-01-10T06:33:43;32.90;99.90
19972;DHT22;10147;16.402;102.848;2024-01-10T06:36:13;32.90;99.90
19972;DHT22;10147;16.402;102.848;2024-01-10T06:38:45;33.20;99.90
19972;DHT22;10147;16.402;102.848;2024-01-10T06:41:17;33.10;99.90
19972;DHT22;10147;16.402;102.848;2024-01-10T06:43:47;33.20;99.90
19972;DHT22;10147;16.402;102.848;2024-01-10T06:46:19;33.30;99.90
19972;DHT22;10147;16.402;102.848;2024-01-10T06:48:49;33.50;99.90
19972;DHT22;10147;16.402;102.848;2024-01-10T06:51:19;33.50;99.90
19972;DHT22;10147;16.402;102.848;2024-01-10T06:53:50;33.50;99.90
19972;DHT22;10147;16.402;102.848;2024-01-10T06:56:20;33.40;99.90
19972;DHT22;10147;16.402;102.848;2024-01-10T06:58:50;33.50;99.90
19972;DHT22;10147;16.402;102.848;2024-01-10T07:01:20;33.50;99.90
19972;DHT22;10147;16.402;102.848;2024-01-10T07:03:52;33.50;99.90
19972;DHT22;10147;16.402;102.848;2024-01-10T07:06:24;33.50;99.90
19972;DHT22;10147;16.402;102.848;2024-01-10T07:08:54;33.50;99.90
19972;DHT22;10147;16.402;102.848;2024-01-10T07:11:24;33.50;99.90
19972;DHT22;10147;16.402;102.848;2024-01-10T07:13:57;33.60;99.90
19972;DHT22;10147;16.402;102.848;2024-01-10T07:16:28;33.50;99.90
19972;DHT22;10147;16.402;102.848;2024-01-10T07:19:01;33.40;99.90
19972;DHT22;10147;16.402;102.848;2024-01-10T07:21:31;33.40;99.90
19972;DHT22;10147;16.402;102.848;2024-01-10T07:24:01;33.40;99.90
19972;DHT22;10147;16.402;102.848;2024-01-10T07:26:40;33.60;99.90
19972;DHT22;10147;16.402;102.848;2024-01-10T07:29:10;34.00;99.90
19972;DHT22;10147;16.402;102.848;2024-01-10T07:31:41;34.00;99.90
19972;DHT22;10147;16.402;102.848;2024-01-10T07:34:11;34.00;99.90
19972;DHT22;10147;16.402;102.848;2024-01-10T07:36:42;34.10;99.90
19972;DHT22;10147;16.402;102.848;2024-01-10T07:39:12;34.10;99.90
19972;DHT22;10147;16.402;102.848;2024-01-10T07:41:45;34.00;99.90
19972;DHT22;10147;16.402;102.848;2024-01-10T07:44:16;34.00;99.90
19972;DHT22;10147;16.402;102.848;2024-01-10T07:46:48;33.90;99.90
19972;DHT22;10147;16.402;102.848;2024-01-10T07:49:20;33.80;99.90
19972;DHT22;10147;16.402;102.848;2024-01-10T07:51:52;34.10;99.90
19972;DHT22;10147;16.402;102.848;2024-01-10T07:54:22;33.90;99.90
19972;DHT22;10147;16.402;102.848;2024-01-10T07:56:52;34.00;99.90
19972;DHT22;10147;16.402;102.848;2024-01-10T07:59:24;34.00;99.90
19972;DHT22;10147;16.402;102.848;2024-01-10T08:01:55;34.10;99.90
19972;DHT22;10147;16.402;102.848;2024-01-10T08:04:27;33.70;99.90
19972;DHT22;10147;16.402;102.848;2024-01-10T08:06:57;33.80;99.90
19972;DHT22;10147;16.402;102.848;2024-01-10T08:09:28;33.70;99.90
19972;DHT22;10147;16.402;102.848;2024-01-10T08:11:58;33.90;99.90
19972;DHT22;10147;16.402;102.848;2024-01-10T08:14:29;34.00;99.90
19972;DHT22;10147;16.402;102.848;2024-01-10T08:16:59;34.10;99.90
19972;DHT22;10147;16.402;102.848;2024-01-10T08:19:30;33.90;99.90
19972;DHT22;10147;16.402;102.848;2024-01-10T08:21:59;34.10;99.90
19972;DHT22;10147;16.402;102.848;2024-01-10T08:24:29;34.10;99.90
19972;DHT22;10147;16.402;102.848;2024-01-10T08:26:59;34.20;99.90
19972;DHT22;10147;16.402;102.848;2024-01-10T08:29:30;34.20;99.90
19972;DHT22;10147;16.402;102.848;2024-01-10T08:32:01;34.20;99.90
19972;DHT22;10147;16.402;102.848;2024-01-10T08:34:33;34.10;99.90
19972;DHT22;10147;16.402;102.848;2024-01-10T08:37:04;34.00;99.90
19972;DHT22;10147;16.402;102.848;2024-01-10T08:39:34;33.90;99.90
19972;DHT22;10147;16.402;102.848;2024-01-10T08:42:04;33.70;99.90
19972;DHT22;10147;16.402;102.848;2024-01-10T08:44:36;33.60;99.90
19972;DHT22;10147;16.402;102.848;2024-01-10T08:47:06;33.50;99.90
19972;DHT22;10147;16.402;102.848;2024-01-10T08:49:37;33.60;99.90
19972;DHT22;10147;16.402;102.848;2024-01-10T08:52:07;33.80;99.90
19972;DHT22;10147;16.402;102.848;2024-01-10T08:54:37;33.70;99.90
19972;DHT22;10147;16.402;102.848;2024-01-10T08:57:07;33.70;99.90
19972;DHT22;10147;16.402;102.848;2024-01-10T08:59:41;33.70;99.90
19972;DHT22;10147;16.402;102.848;2024-01-10T09:02:12;33.40;99.90
19972;DHT22;10147;16.402;102.848;2024-01-10T09:04:42;33.60;99.90
19972;DHT22;10147;16.402;102.848;2024-01-10T09:07:12;33.30;99.90
19972;DHT22;10147;16.402;102.848;2024-01-10T09:09:42;33.10;99.90
19972;DHT22;10147;16.402;102.848;2024-01-10T09:12:14;33.20;99.90
19972;DHT22;10147;16.402;102.848;2024-01-10T09:14:44;33.30;99.90
19972;DHT22;10147;16.402;102.848;2024-01-10T09:17:14;33.30;99.90
19972;DHT22;10147;16.402;102.848;2024-01-10T09:19:45;33.40;99.90
19972;DHT22;10147;16.402;102.848;2024-01-10T09:22:15;33.50;99.90
19972;DHT22;10147;16.402;102.848;2024-01-10T09:24:45;33.50;99.90
19972;DHT22;10147;16.402;102.848;2024-01-10T09:27:15;33.40;99.90
19972;DHT22;10147;16.402;102.848;2024-01-10T09:29:45;33.30;99.90
19972;DHT22;10147;16.402;102.848;2024-01-10T09:32:15;33.30;99.90
19972;DHT22;10147;16.402;102.848;2024-01-10T09:34:46;33.30;99.90
19972;DHT22;10147;16.402;102.848;2024-01-10T09:37:15;33.40;99.90
19972;DHT22;10147;16.402;102.848;2024-01-10T09:39:45;33.20;99.90
19972;DHT22;10147;16.402;102.848;2024-01-10T09:42:15;33.20;99.90
19972;DHT22;10147;16.402;102.848;2024-01-10T09:44:47;33.20;99.90
19972;DHT22;10147;16.402;102.848;2024-01-10T09:47:20;33.20;99.90
19972;DHT22;10147;16.402;102.848;2024-01-10T09:49:50;33.10;99.90
19972;DHT22;10147;16.402;102.848;2024-01-10T09:52:26;33.10;99.90
19972;DHT22;10147;16.402;102.848;2024-01-10T09:54:57;33.10;99.90
19972;DHT22;10147;16.402;102.848;2024-01-10T09:57:28;33.10;99.90
19972;DHT22;10147;16.402;102.848;2024-01-10T10:00:00;33.00;99.90
19972;DHT22;10147;16.402;102.848;2024-01-10T10:02:34;32.90;99.90
19972;DHT22;10147;16.402;102.848;2024-01-10T10:05:20;32.90;99.90
19972;DHT22;10147;16.402;102.848;2024-01-10T10:07:51;32.90;99.90
19972;DHT22;10147;16.402;102.848;2024-01-10T10:10:25;32.70;99.90
19972;DHT22;10147;16.402;102.848;2024-01-10T10:12:57;32.70;99.90
19972;DHT22;10147;16.402;102.848;2024-01-10T10:15:29;32.60;99.90
19972;DHT22;10147;16.402;102.848;2024-01-10T10:18:03;32.50;99.90
19972;DHT22;10147;16.402;102.848;2024-01-10T10:20:33;32.50;99.90
19972;DHT22;10147;16.402;102.848;2024-01-10T10:23:07;32.40;99.90
19972;DHT22;10147;16.402;102.848;2024-01-10T10:25:44;32.30;99.90
19972;DHT22;10147;16.402;102.848;2024-01-10T10:28:15;32.30;99.90
19972;DHT22;10147;16.402;102.848;2024-01-10T10:30:56;32.20;99.90
19972;DHT22;10147;16.402;102.848;2024-01-10T10:33:26;32.20;99.90
19972;DHT22;10147;16.402;102.848;2024-01-10T10:35:57;32.00;99.90
19972;DHT22;10147;16.402;102.848;2024-01-10T10:38:27;31.90;99.90
19972;DHT22;10147;16.402;102.848;2024-01-10T10:40:59;31.90;99.90
19972;DHT22;10147;16.402;102.848;2024-01-10T10:43:33;31.80;99.90
19972;DHT22;10147;16.402;102.848;2024-01-10T10:46:09;31.70;99.90
19972;DHT22;10147;16.402;102.848;2024-01-10T10:48:42;31.60;99.90
19972;DHT22;10147;16.402;102.848;2024-01-10T10:51:26;31.60;99.90
19972;DHT22;10147;16.402;102.848;2024-01-10T10:53:59;31.50;99.90
19972;DHT22;10147;16.402;102.848;2024-01-10T10:56:31;31.50;99.90
19972;DHT22;10147;16.402;102.848;2024-01-10T10:59:03;31.50;99.90
19972;DHT22;10147;16.402;102.848;2024-01-10T11:01:34;31.50;99.90
19972;DHT22;10147;16.402;102.848;2024-01-10T11:04:05;31.50;99.90
19972;DHT22;10147;16.402;102.848;2024-01-10T11:06:37;31.30;99.90
19972;DHT22;10147;16.402;102.848;2024-01-10T11:09:09;31.20;99.90
19972;DHT22;10147;16.402;102.848;2024-01-10T11:24:22;31.00;99.90
19972;DHT22;10147;16.402;102.848;2024-01-10T11:27:13;31.00;99.90
19972;DHT22;10147;16.402;102.848;2024-01-10T11:29:46;31.00;99.90
19972;DHT22;10147;16.402;102.848;2024-01-10T11:32:19;30.90;99.90
19972;DHT22;10147;16.402;102.848;2024-01-10T11:34:59;30.80;99.90
19972;DHT22;10147;16.402;102.848;2024-01-10T11:37:43;30.80;99.90
19972;DHT22;10147;16.402;102.848;2024-01-10T11:40:13;30.80;99.90
19972;DHT22;10147;16.402;102.848;2024-01-10T11:42:45;30.70;99.90
19972;DHT22;10147;16.402;102.848;2024-01-10T11:45:35;30.70;99.90
19972;DHT22;10147;16.402;102.848;2024-01-10T11:48:08;30.70;99.90
19972;DHT22;10147;16.402;102.848;2024-01-10T11:50:38;30.60;99.90
19972;DHT22;10147;16.402;102.848;2024-01-10T11:53:08;30.60;99.90
19972;DHT22;10147;16.402;102.848;2024-01-10T11:55:52;30.50;99.90
19972;DHT22;10147;16.402;102.848;2024-01-10T11:58:24;30.50;99.90
19972;DHT22;10147;16.402;102.848;2024-01-10T12:00:54;30.50;99.90
19972;DHT22;10147;16.402;102.848;2024-01-10T12:03:25;30.40;99.90
19972;DHT22;10147;16.402;102.848;2024-01-10T12:05:58;30.20;99.90
19972;DHT22;10147;16.402;102.848;2024-01-10T12:08:30;30.30;99.90
19972;DHT22;10147;16.402;102.848;2024-01-10T12:10:59;30.20;99.90
19972;DHT22;10147;16.402;102.848;2024-01-10T12:13:30;30.20;99.90
19972;DHT22;10147;16.402;102.848;2024-01-10T12:16:01;30.20;99.90
19972;DHT22;10147;16.402;102.848;2024-01-10T12:18:31;30.10;99.90
19972;DHT22;10147;16.402;102.848;2024-01-10T12:21:02;30.10;99.90
19972;DHT22;10147;16.402;102.848;2024-01-10T12:23:32;29.90;99.90
19972;DHT22;10147;16.402;102.848;2024-01-10T12:26:10;29.90;99.90
19972;DHT22;10147;16.402;102.848;2024-01-10T12:28:57;29.90;99.90
19972;DHT22;10147;16.402;102.848;2024-01-10T12:31:28;29.90;99.90
19972;DHT22;10147;16.402;102.848;2024-01-10T12:33:59;29.90;99.90
19972;DHT22;10147;16.402;102.848;2024-01-10T12:36:33;29.80;99.90
19972;DHT22;10147;16.402;102.848;2024-01-10T12:39:03;29.80;99.90
19972;DHT22;10147;16.402;102.848;2024-01-10T12:41:36;29.70;99.90
19972;DHT22;10147;16.402;102.848;2024-01-10T12:44:06;29.60;99.90
19972;DHT22;10147;16.402;102.848;2024-01-10T12:46:49;29.60;99.90
19972;DHT22;10147;16.402;102.848;2024-01-10T12:49:25;29.60;99.90
19972;DHT22;10147;16.402;102.848;2024-01-10T12:51:56;29.60;99.90
19972;DHT22;10147;16.402;102.848;2024-01-10T12:54:26;29.40;99.90
19972;DHT22;10147;16.402;102.848;2024-01-10T12:56:56;29.40;99.90
19972;DHT22;10147;16.402;102.848;2024-01-10T12:59:26;29.50;99.90
19972;DHT22;10147;16.402;102.848;2024-01-10T13:01:57;29.40;99.90
19972;DHT22;10147;16.402;102.848;2024-01-10T13:04:30;29.40;99.90
19972;DHT22;10147;16.402;102.848;2024-01-10T13:07:01;29.40;99.90
19972;DHT22;10147;16.402;102.848;2024-01-10T13:09:31;29.40;99.90
19972;DHT22;10147;16.402;102.848;2024-01-10T13:12:04;29.40;99.90
19972;DHT22;10147;16.402;102.848;2024-01-10T13:14:35;29.40;99.90
19972;DHT22;10147;16.402;102.848;2024-01-10T13:17:05;29.40;99.90
19972;DHT22;10147;16.402;102.848;2024-01-10T13:19:35;29.20;99.90
19972;DHT22;10147;16.402;102.848;2024-01-10T13:22:06;29.00;99.90
19972;DHT22;10147;16.402;102.848;2024-01-10T13:24:37;29.10;99.90
19972;DHT22;10147;16.402;102.848;2024-01-10T13:27:07;29.20;99.90
19972;DHT22;10147;16.402;102.848;2024-01-10T13:29:40;29.20;99.90
19972;DHT22;10147;16.402;102.848;2024-01-10T13:32:10;29.10;99.90
19972;DHT22;10147;16.402;102.848;2024-01-10T13:34:40;29.10;99.90
19972;DHT22;10147;16.402;102.848;2024-01-10T13:37:14;29.10;99.90
19972;DHT22;10147;16.402;102.848;2024-01-10T13:39:44;29.10;99.90
19972;DHT22;10147;16.402;102.848;2024-01-10T13:42:14;29.10;99.90
19972;DHT22;10147;16.402;102.848;2024-01-10T13:44:44;29.00;99.90
19972;DHT22;10147;16.402;102.848;2024-01-10T13:47:14;29.00;99.90
19972;DHT22;10147;16.402;102.848;2024-01-10T13:49:46;28.90;99.90
19972;DHT22;10147;16.402;102.848;2024-01-10T13:52:17;28.90;99.90
19972;DHT22;10147;16.402;102.848;2024-01-10T13:54:48;28.80;99.90
19972;DHT22;10147;16.402;102.848;2024-01-10T13:57:18;28.80;99.90
19972;DHT22;10147;16.402;102.848;2024-01-10T13:59:51;28.80;99.90
19972;DHT22;10147;16.402;102.848;2024-01-10T14:02:25;28.70;99.90
19972;DHT22;10147;16.402;102.848;2024-01-10T14:05:01;28.70;99.90
19972;DHT22;10147;16.402;102.848;2024-01-10T14:07:35;28.60;99.90
19972;DHT22;10147;16.402;102.848;2024-01-10T14:10:06;28.70;99.90
19972;DHT22;10147;16.402;102.848;2024-01-10T14:12:37;28.60;99.90
19972;DHT22;10147;16.402;102.848;2024-01-10T14:15:08;28.60;99.90
19972;DHT22;10147;16.402;102.848;2024-01-10T14:17:40;28.50;99.90
19972;DHT22;10147;16.402;102.848;2024-01-10T14:20:10;28.50;99.90
19972;DHT22;10147;16.402;102.848;2024-01-10T14:22:43;28.40;99.90
19972;DHT22;10147;16.402;102.848;2024-01-10T14:25:14;28.40;99.90
19972;DHT22;10147;16.402;102.848;2024-01-10T14:27:44;28.20;99.90
19972;DHT22;10147;16.402;102.848;2024-01-10T14:30:18;28.10;99.90
19972;DHT22;10147;16.402;102.848;2024-01-10T14:32:50;28.10;99.90
19972;DHT22;10147;16.402;102.848;2024-01-10T14:35:21;28.20;99.90
19972;DHT22;10147;16.402;102.848;2024-01-10T14:37:52;28.20;99.90
19972;DHT22;10147;16.402;102.848;2024-01-10T14:40:22;28.20;99.90
19972;DHT22;10147;16.402;102.848;2024-01-10T14:42:54;28.20;99.90
19972;DHT22;10147;16.402;102.848;2024-01-10T14:45:23;28.30;99.90
19972;DHT22;10147;16.402;102.848;2024-01-10T14:47:54;28.20;99.90
19972;DHT22;10147;16.402;102.848;2024-01-10T14:50:25;28.10;99.90
19972;DHT22;10147;16.402;102.848;2024-01-10T14:52:56;28.10;99.90
19972;DHT22;10147;16.402;102.848;2024-01-10T14:55:29;28.10;99.90
19972;DHT22;10147;16.402;102.848;2024-01-10T14:57:59;28.10;99.90
19972;DHT22;10147;16.402;102.848;2024-01-10T15:00:30;28.10;99.90
19972;DHT22;10147;16.402;102.848;2024-01-10T15:03:00;28.00;99.90
19972;DHT22;10147;16.402;102.848;2024-01-10T15:05:41;28.00;99.90
19972;DHT22;10147;16.402;102.848;2024-01-10T15:08:11;28.00;99.90
19972;DHT22;10147;16.402;102.848;2024-01-10T15:10:43;27.90;99.90
19972;DHT22;10147;16.402;102.848;2024-01-10T15:13:13;28.00;99.90
19972;DHT22;10147;16.402;102.848;2024-01-10T15:15:44;27.80;99.90
19972;DHT22;10147;16.402;102.848;2024-01-10T15:18:14;27.80;99.90
19972;DHT22;10147;16.402;102.848;2024-01-10T15:20:44;27.80;99.90
19972;DHT22;10147;16.402;102.848;2024-01-10T15:23:14;27.80;99.90
19972;DHT22;10147;16.402;102.848;2024-01-10T15:25:44;27.70;99.90
19972;DHT22;10147;16.402;102.848;2024-01-10T15:28:14;27.70;99.90
19972;DHT22;10147;16.402;102.848;2024-01-10T15:30:45;27.70;99.90
19972;DHT22;10147;16.402;102.848;2024-01-10T15:33:15;27.70;99.90
19972;DHT22;10147;16.402;102.848;2024-01-10T15:35:49;27.60;99.90
19972;DHT22;10147;16.402;102.848;2024-01-10T15:38:19;27.40;99.90
19972;DHT22;10147;16.402;102.848;2024-01-10T15:40:49;27.30;99.90
19972;DHT22;10147;16.402;102.848;2024-01-10T15:43:20;27.30;99.90